Latest Weather Observations for Norah Head

IDN60901

Issued at 4:51 pm EST Thursday 24 August 2017 (issued every 10 minutes, with the page automatically refreshed every 10 minutes)

About weather observations | Map of Sydney area stations | Latest observations for Sydney area | Other Formats
Station Details ID: 061366 Name: NORAH HEAD AWS Lat: -33.28 Lon: 151.58 Height: 18.8 m
Data from the previous 72 hours. | See also: Recent months at Norah Head
Date/Time
EST
Temp
°C
App
Temp
°C
Dew
Point
°C
Rel
Hum
%
Delta-T
°C
Wind Press
QNH
hPa
Press
MSL
hPa
Rain since
9am
mm
Dir  Spd
km/h
Gust
km/h
Spd
kts
Gust
kts
24/04:30pm 15.4 7.7 10.0 70 2.8 S 41 50 22 27 1017.0 1017.0 0.0
24/04:00pm 15.4 6.8 10.2 71 2.7 S 46 56 25 30 1016.7 1016.7 0.0
24/03:30pm 15.6 7.3 9.5 67 3.2 S 43 50 23 27 1016.5 1016.5 0.0
24/03:00pm 15.8 8.4 9.7 67 3.2 SSW 39 50 21 27 1016.5 1016.5 0.0
24/02:30pm 15.8 9.1 11.0 73 2.6 SSW 37 50 20 27 1016.4 1016.3 0.0
24/02:00pm 15.7 8.1 10.5 71 2.7 S 41 56 22 30 1016.2 1016.1 0.0
24/01:30pm 15.8 7.8 10.3 70 2.9 S 43 56 23 30 1016.1 1016.0 0.0
24/01:00pm 16.2 9.9 10.9 71 2.8 S 35 48 19 26 1016.1 1016.0 0.0
24/12:30pm 16.4 10.1 10.9 70 2.9 SSW 35 48 19 26 1016.4 1016.3 0.0
24/12:00pm 16.7 11.5 7.4 54 4.6 S 24 33 13 18 1016.7 1016.7 0.0
24/11:30am 17.0 12.5 5.9 48 5.4 SSW 19 24 10 13 1017.0 1017.0 0.0
24/11:00am 17.3 13.3 4.9 44 5.9 SW 15 24 8 13 1017.2 1017.2 0.0
24/10:30am 16.9 13.7 5.2 46 5.6 SW 11 20 6 11 1017.3 1017.3 0.0
24/10:00am 16.2 12.2 4.9 47 5.3 SW 15 28 8 15 1017.3 1017.3 0.0
24/09:30am 15.7 11.2 4.1 46 5.4 SW 17 28 9 15 1017.3 1017.3 0.0
24/09:00am 15.3 11.2 4.1 47 5.2 WSW 15 33 8 18 1017.2 1017.2 0.0
24/08:30am 14.7 11.2 5.5 54 4.4 WSW 13 20 7 11 1017.2 1017.2 0.0
24/08:00am 13.3 10.2 5.7 60 3.6 WSW 11 22 6 12 1017.0 1017.0 0.0
24/07:30am 12.7 10.0 5.4 61 3.4 WSW 9 17 5 9 1017.0 1017.0 0.0
24/07:00am 12.1 9.0 5.7 65 3.0 W 11 19 6 10 1016.8 1016.8 0.0
24/06:30am 11.5 8.9 6.0 69 2.6 W 9 15 5 8 1016.7 1016.7 0.0
24/06:00am 11.8 8.8 6.1 68 2.7 W 11 17 6 9 1016.4 1016.3 0.0
24/05:30am 12.2 9.1 5.6 64 3.1 WSW 11 15 6 8 1016.1 1016.0 0.0
24/05:00am 12.8 9.4 5.7 62 3.3 WSW 13 19 7 10 1015.7 1015.6 0.0
24/04:30am 13.3 10.0 6.6 64 3.2 WSW 13 17 7 9 1015.6 1015.5 0.0
24/04:00am 13.1 10.2 6.5 64 3.2 SW 11 17 6 9 1015.4 1015.3 0.0
24/03:30am 12.8 9.9 8.3 74 2.2 WSW 13 17 7 9 1015.3 1015.2 0.0
24/03:00am 12.4 10.7 9.8 84 1.3 W 9 13 5 7 1015.3 1015.2 0.0
24/02:30am 12.6 11.1 10.5 87 1.1 W 9 11 5 6 1015.4 1015.3 0.0
24/02:00am 13.3 11.1 10.8 85 1.3 WSW 13 19 7 10 1015.4 1015.3 0.0
24/01:30am 13.5 11.2 11.6 88 1.0 WSW 15 20 8 11 1015.5 1015.4 0.0
24/01:00am 13.6 11.2 12.7 94 0.5 WSW 17 20 9 11 1015.6 1015.5 0.0
24/12:30am 13.1 11.5 12.8 98 0.2 W 13 19 7 10 1015.7 1015.6 0.0
24/12:00am 13.5 11.7 13.3 99 0.1 W 15 20 8 11 1015.9 1015.8 0.0
 
Date/Time
EST
Temp
°C
App
Temp
°C
Dew
Point
°C
Rel
Hum
%
Delta-T
°C
Wind Press
QNH
hPa
Press
MSL
hPa
Rain since
9am
mm
Dir  Spd
km/h
Gust
km/h
Spd
kts
Gust
kts
23/11:30pm 13.7 11.5 13.4 98 0.2 W 17 20 9 11 1015.9 1015.8 0.0
23/11:00pm 14.7 14.0 14.2 97 0.3 WSW 11 13 6 7 1015.9 1015.8 0.0
23/10:30pm 14.8 14.8 13.5 92 0.7 WSW 6 13 3 7 1015.9 1015.8 0.0
23/10:00pm 15.9 17.3 14.4 91 0.9 CALM 0 0 0 0 1015.8 1015.7 0.0
23/09:30pm 16.1 17.5 14.5 90 0.9 CALM 0 0 0 0 1016.0 1015.9 0.0
23/09:00pm 16.4 17.9 14.6 89 1.0 CALM 0 2 0 1 1016.1 1016.0 0.0
23/08:30pm 16.2 17.3 14.6 90 0.9 NW 2 4 1 2 1016.2 1016.1 0.0
23/08:00pm 16.5 17.0 14.9 90 0.9 NNW 6 7 3 4 1016.1 1016.0 0.0
23/07:30pm 17.0 16.8 15.7 92 0.8 NNW 11 15 6 8 1016.0 1015.9 0.0
23/07:00pm 17.3 17.2 16.0 92 0.8 NNW 11 15 6 8 1015.8 1015.7 0.0
23/06:30pm 17.5 15.9 16.4 93 0.7 NNE 20 24 11 13 1015.6 1015.5 0.0
23/06:00pm 17.6 15.2 16.3 92 0.8 NE 24 28 13 15 1015.5 1015.4 0.0
23/05:30pm 17.4 15.1 15.7 90 1.0 NE 22 26 12 14 1015.3 1015.2 0.0
23/05:00pm 17.6 15.7 15.8 89 1.1 NE 20 22 11 12 1015.4 1015.3 0.0
23/04:30pm 18.2 16.9 14.7 80 2.0 NE 15 17 8 9 1015.3 1015.2 0.0
23/04:00pm 19.2 17.8 14.5 74 2.7 ENE 15 19 8 10 1015.4 1015.3 0.0
23/03:30pm 19.3 17.4 14.1 72 3.0 ENE 17 20 9 11 1015.6 1015.5 0.0
23/03:00pm 19.5 16.8 13.4 68 3.5 NE 20 24 11 13 1015.8 1015.7 0.0
23/02:30pm 20.7 17.9 13.2 62 4.3 ENE 20 22 11 12 1016.1 1016.0 0.0
23/02:00pm 21.2 18.7 13.4 61 4.5 NE 19 22 10 12 1016.4 1016.3 0.0
23/01:30pm 21.3 18.5 13.2 60 4.6 NE 20 20 11 11 1016.7 1016.7 0.0
23/01:00pm 20.7 18.0 12.9 61 4.4 NE 19 20 10 11 1017.2 1017.2 0.0
23/12:30pm 20.7 19.1 12.9 61 4.4 ENE 13 15 7 8 1017.7 1017.7 0.0
23/12:00pm 19.9 18.6 12.4 62 4.2 ENE 11 15 6 8 1018.3 1018.3 0.0
23/11:30am 20.4 19.6 12.9 62 4.3 NE 9 13 5 7 1018.9 1018.9 0.0
23/11:00am 19.8 19.3 12.6 63 4.0 NE 7 9 4 5 1019.2 1019.2 0.0
23/10:30am 19.3 18.5 11.8 62 4.1 NE 7 7 4 4 1019.6 1019.6 0.0
23/10:00am 17.8 16.8 10.9 64 3.7 NNE 7 7 4 4 1019.8 1019.8 0.0
23/09:30am 16.4 14.8 10.3 67 3.2 N 9 11 5 6 1020.1 1020.1 0.0
23/09:00am 16.0 14.3 9.9 67 3.2 N 9 9 5 5 1020.2 1020.2 0.2
23/08:30am 14.9 13.6 9.3 69 2.9 NW 6 9 3 5 1020.3 1020.3 0.2
23/08:00am 14.1 12.7 9.5 74 2.4 NW 7 9 4 5 1020.3 1020.3 0.2
23/07:30am 12.9 11.0 9.0 77 2.0 WNW 9 11 5 6 1020.2 1020.2 0.2
23/07:00am 12.0 10.0 8.8 81 1.6 NW 9 11 5 6 1020.0 1020.0 0.2
23/06:30am 11.3 8.9 8.7 84 1.3 NW 11 13 6 7 1019.9 1019.9 0.2
23/06:00am 11.4 9.4 8.6 83 1.4 NW 9 11 5 6 1019.6 1019.6 0.2
23/05:30am 11.8 9.4 8.8 82 1.5 NW 11 13 6 7 1019.5 1019.5 0.2
23/05:00am 11.7 9.7 8.6 81 1.5 NW 9 11 5 6 1019.5 1019.5 0.2
23/04:30am 12.0 10.0 8.5 79 1.7 NW 9 11 5 6 1019.5 1019.5 0.2
23/04:00am 12.3 10.3 8.8 79 1.7 NW 9 11 5 6 1019.6 1019.6 0.2
23/03:30am 12.0 10.0 8.5 79 1.7 WNW 9 11 5 6 1019.8 1019.8 0.2
23/03:00am 12.1 10.1 8.8 80 1.6 NW 9 11 5 6 1019.9 1019.9 0.2
23/02:30am 11.9 9.5 8.6 80 1.6 NW 11 13 6 7 1019.9 1019.9 0.2
23/02:00am 11.9 9.5 8.6 80 1.6 NW 11 13 6 7 1020.1 1020.1 0.2
23/01:30am 11.9 9.8 8.4 79 1.7 NW 9 11 5 6 1020.1 1020.1 0.2
23/01:00am 12.1 9.7 8.6 79 1.7 NW 11 13 6 7 1020.4 1020.4 0.2
23/12:30am 12.4 10.1 9.1 80 1.7 NNW 11 15 6 8 1020.5 1020.5 0.2
23/12:00am 12.5 10.2 9.0 79 1.8 NW 11 13 6 7 1020.6 1020.6 0.2
 
Date/Time
EST
Temp
°C
App
Temp
°C
Dew
Point
°C
Rel
Hum
%
Delta-T
°C
Wind Press
QNH
hPa
Press
MSL
hPa
Rain since
9am
mm
Dir  Spd
km/h
Gust
km/h
Spd
kts
Gust
kts
22/11:30pm 12.4 10.4 8.7 78 1.8 NW 9 11 5 6 1020.8 1020.8 0.2
22/11:00pm 12.3 10.2 8.4 77 1.9 NW 9 11 5 6 1021.1 1021.1 0.2
22/10:30pm 12.6 10.9 8.3 75 2.1 NW 7 9 4 5 1021.3 1021.3 0.2
22/10:00pm 12.6 10.4 7.9 73 2.3 NW 9 13 5 7 1021.4 1021.4 0.2
22/09:30pm 13.3 11.7 8.6 73 2.4 NW 7 9 4 5 1021.3 1021.3 0.2
22/09:00pm 14.7 12.6 9.7 72 2.6 NNE 11 15 6 8 1021.3 1021.3 0.2
22/08:30pm 13.8 11.2 7.6 66 3.1 ENE 11 13 6 7 1021.3 1021.3 0.2
22/08:00pm 14.0 11.3 7.3 64 3.3 ENE 11 13 6 7 1021.1 1021.1 0.2
22/07:30pm 14.7 12.0 7.3 61 3.6 ENE 11 13 6 7 1020.8 1020.8 0.2
22/07:00pm 15.5 12.8 7.3 58 4.0 E 11 15 6 8 1020.6 1020.6 0.2
22/06:30pm 15.8 12.7 7.3 57 4.2 E 13 17 7 9 1020.3 1020.3 0.2
22/06:00pm 15.9 12.8 7.4 57 4.2 E 13 15 7 8 1019.9 1019.9 0.2
22/05:30pm 15.9 12.8 7.4 57 4.2 ESE 13 17 7 9 1019.5 1019.5 0.2
22/05:00pm 16.0 13.0 7.7 58 4.1 ESE 13 15 7 8 1019.3 1019.3 0.2
22/04:30pm 16.1 13.1 7.8 58 4.2 SE 13 17 7 9 1019.0 1019.0 0.2
22/04:00pm 16.6 13.2 7.5 55 4.5 ESE 15 19 8 10 1018.7 1018.7 0.2
22/03:30pm 17.0 13.8 8.4 57 4.4 SE 15 19 8 10 1018.4 1018.4 0.2
22/03:00pm 17.5 14.3 8.4 55 4.7 SE 15 17 8 9 1018.4 1018.4 0.2
22/02:30pm 18.2 14.9 9.5 57 4.6 SE 17 20 9 11 1018.3 1018.3 0.2
22/02:00pm 18.9 15.7 9.9 56 4.8 SSE 17 19 9 10 1018.1 1018.1 0.2
22/01:30pm 18.6 15.6 10.7 60 4.3 SSE 17 19 9 10 1018.4 1018.4 0.2
22/01:00pm 18.1 15.6 11.0 63 3.8 S 15 19 8 10 1018.6 1018.6 0.2
22/12:30pm 17.9 15.3 10.8 63 3.8 S 15 19 8 10 1018.8 1018.8 0.0
22/12:00pm 17.4 14.7 10.3 63 3.8 S 15 19 8 10 1019.2 1019.2 0.0
22/11:30am 16.9 14.6 10.3 65 3.5 SSW 13 17 7 9 1019.5 1019.5 0.0
22/11:00am 16.6 14.4 9.5 63 3.7 SSW 11 17 6 9 1019.6 1019.6 0.0
22/10:30am 16.2 14.4 9.4 64 3.5 SSW 9 13 5 7 1019.8 1019.8 0.0
22/10:00am 15.3 12.9 8.5 64 3.4 SSW 11 17 6 9 1019.8 1019.8 0.0
22/09:30am 14.6 12.2 8.8 68 2.9 SW 11 15 6 8 1019.6 1019.6 0.0
22/09:00am 13.8 11.3 8.4 70 2.7 SW 11 19 6 10 1019.5 1019.5 0.0
22/08:30am 13.6 11.4 8.0 69 2.8 SW 9 17 5 9 1019.3 1019.3 0.0
22/08:00am 12.2 9.5 7.5 73 2.3 WSW 11 17 6 9 1019.2 1019.2 0.0
22/07:30am 11.2 8.1 7.1 76 2.0 W 13 17 7 9 1018.9 1018.9 0.0
22/07:00am 10.4 6.9 7.1 80 1.6 W 15 20 8 11 1018.5 1018.5 0.0
22/06:30am 10.4 6.9 7.3 81 1.5 WSW 15 17 8 9 1018.0 1018.0 0.0
22/06:00am 10.6 7.8 7.1 79 1.7 WSW 11 15 6 8 1017.7 1017.7 0.0
22/05:30am 10.9 7.7 7.0 77 1.9 WSW 13 15 7 8 1017.6 1017.6 0.0
22/05:00am 11.0 7.9 7.3 78 1.8 W 13 17 7 9 1017.4 1017.4 0.0
22/04:30am 11.5 8.2 6.4 71 2.4 WSW 13 15 7 8 1017.0 1017.0 0.0
22/04:00am 12.2 9.2 6.0 66 2.9 WSW 11 13 6 7 1016.6 1016.6 0.0
22/03:30am 11.6 7.3 5.3 65 2.9 WSW 17 19 9 10 1016.6 1016.6 0.0
22/03:00am 12.4 9.1 4.6 59 3.6 W 11 13 6 7 1016.6 1016.6 0.0
22/02:30am 10.9 8.5 5.2 68 2.6 NW 7 9 4 5 1016.6 1016.6 0.0
22/02:00am 10.8 8.6 6.0 72 2.2 NW 7 7 4 4 1016.9 1016.9 0.0
22/01:30am 11.5 9.1 7.0 74 2.1 NW 9 11 5 6 1017.3 1017.3 0.0
22/01:00am 13.6 11.4 6.0 60 3.6 SW 7 9 4 5 1017.3 1017.3 0.0
22/12:30am 13.5 11.2 4.9 56 4.0 SW 6 7 3 4 1017.5 1017.5 0.0
22/12:00am 12.9 9.9 6.0 63 3.3 W 11 13 6 7 1017.8 1017.8 0.0
 
Date/Time
EST
Temp
°C
App
Temp
°C
Dew
Point
°C
Rel
Hum
%
Delta-T
°C
Wind Press
QNH
hPa
Press
MSL
hPa
Rain since
9am
mm
Dir  Spd
km/h
Gust
km/h
Spd
kts
Gust
kts
21/11:30pm 13.0 10.1 6.6 65 3.1 W 11 15 6 8 1018.0 1018.0 0.0
21/11:00pm 12.9 10.0 6.5 65 3.0 WNW 11 13 6 7 1018.0 1018.0 0.0
21/10:30pm 12.0 10.0 7.1 72 2.4 WNW 7 9 4 5 1018.1 1018.1 0.0
21/10:00pm 12.3 10.4 7.4 72 2.4 WNW 7 9 4 5 1018.0 1018.0 0.0
21/09:30pm 12.7 10.8 7.6 71 2.5 WNW 7 13 4 7 1018.0 1018.0 0.0
21/09:00pm 13.0 11.4 7.9 71 2.5 WNW 6 9 3 5 1017.7 1017.7 0.0
21/08:30pm 13.6 10.5 8.7 72 2.5 NNW 15 20 8 11 1017.3 1017.3 0.0
21/08:00pm 14.0 9.8 8.4 69 2.8 N 20 24 11 13 1017.0 1017.0 0.0
21/07:30pm 14.1 8.8 8.5 69 2.8 N 26 30 14 16 1016.8 1016.8 0.0
21/07:00pm 14.3 9.1 8.7 69 2.8 N 26 30 14 16 1016.5 1016.5 0.0
21/06:30pm 14.7 9.2 9.3 70 2.8 N 28 32 15 17 1016.5 1016.5 0.0
21/06:00pm 15.1 10.1 8.1 63 3.5 NNE 24 28 13 15 1016.4 1016.3 0.0
21/05:30pm 15.0 10.1 8.3 64 3.4 NNE 24 26 13 14 1016.1 1016.0 0.0
21/05:00pm 15.1 10.9 8.1 63 3.5 N 20 26 11 14 1015.9 1015.8 0.0

Latest Capital City Observations: Canberra | Sydney | Melbourne | Brisbane | Adelaide | Perth | Hobart | Darwin

Other Formats:

Comma delimited format used in spreadsheet applications
http://www.bom.gov.au/fwo/IDN60901/IDN60901.95770.axf

JavaScript Object Notation format (JSON) in row-major order
http://www.bom.gov.au/fwo/IDN60901/IDN60901.95770.json